Wall Lake, Louisiana
Current Conditions -  °F | °C
As of 7:53 AM on Sunday 21 Dec 2014 (Local Time) from KMLU Reporting Station
Haze Haze  
Wind Chill: 36°   Ceiling: Unl
Heat Index: 36°   Visibility: 4mi
Dew Point: 36°   Wind: 3mph
Humidity: 100%   Direction: 330°NNW
Pressure: 30.18"   Gusts: NA
Location:  32.5473°N, 92.2007°W
Report Text: KMLU 211353Z 33003KT 4SM BR CLR 02/02 A3018 RMK AO2 SLP222 T00220022
Loading
Personal Weather Stations






























Interactive Weather Map New forecast layout! Learn more

10-Day Weather Forecast

Advertisements
Track Severe Weather on mobile